Date,TemperatureHighF,TemperatureAvgF,TemperatureLowF,DewpointHighF,DewpointAvgF,DewpointLowF,HumidityHigh,HumidityAvg,HumidityLow,PressureMaxIn,PressureMinIn,WindSpeedMaxMPH,WindSpeedAvgMPH,GustSpeedMaxMPH,PrecipitationSumIn
2013-1-1,17.8,16.7,14.4,12.5,11.6,9.6,82,80,79,23.89,23.86,0,0,0,0.00
2013-1-3,43.3,31.2,21.2,13.4,7.9,4.2,49,37,29,23.95,23.86,12,2,12,0.00
2013-1-4,48.7,29.2,16.7,17.1,9.5,2.7,56,44,27,23.98,23.92,7,0,7,0.00
2013-1-5,56.5,33.1,21.2,21.1,12.7,5.5,58,44,25,24.04,23.95,8,0,8,0.00
2013-1-6,52.9,37.4,28.2,20.7,15.2,11.9,56,41,27,23.95,23.68,11,1,11,0.00
2013-1-7,48.4,34.3,26.1,24.0,17.4,12.4,66,51,34,23.77,23.77,6,1,9,0.00
2013-1-8,55.6,35.7,23.2,23.5,17.4,9.9,67,50,26,23.95,23.74,8,0,8,0.00
2013-1-9,62.6,41.3,30.4,26.8,20.7,15.5,68,46,24,24.01,23.83,10,1,10,0.00
2013-1-10,45.9,37.9,26.2,27.4,19.7,14.4,79,49,37,23.83,23.54,17,4,17,0.00
2013-1-11,36.3,24.0,14.4,16.9,7.6,-1.3,74,51,31,23.71,23.56,10,1,10,0.00
2013-1-12,33.3,20.9,11.5,9.5,2.4,-3.5,62,45,31,23.71,23.62,11,1,11,0.00
2013-1-13,34.9,19.6,8.4,7.3,0.6,-4.4,58,44,31,23.74,23.65,8,1,8,0.00
2013-1-14,33.3,18.4,5.9,10.6,-0.5,-8.7,63,43,35,23.86,23.65,10,1,10,0.00
2013-1-15,40.3,24.7,7.9,11.3,3.1,-9.5,58,40,30,24.04,23.86,10,1,10,0.00
2013-1-16,55.8,32.8,20.8,23.9,16.0,8.1,72,52,28,24.04,23.98,6,0,6,0.00
2013-1-17,55.2,37.4,26.2,23.2,18.3,13.4,70,48,28,24.04,23.98,9,1,9,0.00
2013-1-18,60.4,37.1,25.3,27.0,21.2,17.6,75,56,27,24.04,23.95,6,0,6,0.00
2013-1-19,62.6,38.4,25.5,29.0,20.6,15.8,71,52,26,24.07,23.98,6,0,6,0.00
2013-1-20,62.6,37.9,25.3,24.7,15.3,10.2,62,42,19,24.01,23.92,7,1,7,0.00
2013-1-21,62.6,39.5,25.9,25.2,15.8,9.3,56,40,19,23.98,23.92,8,1,8,0.00
2013-1-22,67.8,43.1,30.0,29.6,23.1,16.8,75,49,23,24.04,23.98,9,1,9,0.00
2013-1-23,62.2,44.6,32.5,27.9,23.6,17.7,60,45,27,24.07,24.01,8,1,8,0.00
2013-1-24,49.8,44.8,39.2,46.7,37.0,25.6,98,78,41,24.04,23.98,10,1,10,0.16
2013-1-25,56.1,45.6,38.7,53.0,42.6,38.2,98,90,62,24.01,23.86,4,0,4,0.24
2013-1-26,46.8,44.3,41.9,46.2,43.7,41.4,98,98,98,23.86,23.68,10,1,10,1.10
2013-1-27,44.4,41.6,37.4,43.9,40.3,34.4,98,95,83,23.80,23.68,13,2,13,0.35
2013-1-28,36.9,31.0,21.4,35.7,27.1,16.2,98,86,66,23.71,23.62,10,1,10,0.20
2013-1-29,37.6,28.0,17.1,23.6,17.6,12.1,83,66,46,23.92,23.71,11,1,11,0.00
2013-1-30,49.6,34.1,23.5,27.3,22.0,15.9,79,63,38,24.01,23.92,9,1,9,0.00
2013-1-31,34.9,30.6,28.0,27.3,25.5,23.3,89,81,72,24.01,23.98,4,0,5,0.00
2013-2-4,59.7,46.4,34.0,33.7,28.4,24.1,96,52,32,23.89,23.83,8,1,8,0.00
2013-2-5,63.5,42.9,32.2,32.5,27.7,24.2,79,58,30,23.86,23.77,8,1,8,0.00
2013-2-6,55.9,41.3,32.7,36.9,30.7,26.1,87,68,38,23.86,23.74,9,1,9,0.00
2013-2-7,58.3,40.4,29.5,33.6,28.0,23.3,90,65,35,23.92,23.74,8,1,8,0.00
2013-2-8,46.9,38.5,28.9,30.6,21.2,7.5,76,51,30,23.74,23.54,16,4,16,0.00
2013-2-9,29.8,26.3,20.5,24.6,22.0,15.5,89,84,72,23.71,23.51,9,1,9,0.00
2013-2-10,36.0,27.7,19.0,24.8,20.1,14.2,86,73,55,23.74,23.65,10,1,10,0.00
2013-2-11,38.5,28.9,18.5,25.2,16.2,9.9,86,60,42,23.83,23.80,6,1,8,0.04
2013-2-12,42.4,27.0,13.1,17.6,12.4,6.8,77,57,31,23.95,23.83,8,1,8,0.08
2013-2-13,24.1,21.8,20.3,13.0,12.4,11.3,71,67,61,23.92,23.89,4,0,4,0.00
2013-2-15,59.4,47.8,36.7,23.7,18.4,10.4,44,31,25,24.10,24.01,10,1,10,0.00
2013-2-16,64.0,43.1,28.6,24.0,15.9,8.8,52,35,18,24.10,23.86,8,1,8,0.00
2013-2-17,59.4,42.2,31.6,23.6,17.2,12.3,55,38,25,23.86,23.68,13,1,13,0.00
2013-2-18,60.4,40.1,28.0,23.5,17.9,13.2,58,43,22,23.86,23.77,9,1,9,0.00
2013-2-19,55.0,40.0,31.1,25.8,17.8,12.5,63,42,26,23.77,23.45,13,2,13,0.00
2013-2-20,35.4,29.4,23.2,28.0,22.7,17.6,88,76,60,23.59,23.39,10,1,10,0.00
2013-2-21,40.1,29.8,22.8,27.9,24.0,18.4,89,79,50,23.74,23.59,10,1,10,0.12
2013-2-22,44.8,29.0,17.4,21.4,16.9,12.7,85,63,38,23.86,23.71,9,1,9,0.00
2013-2-23,49.3,33.8,22.6,24.3,18.4,12.3,78,55,36,23.86,23.62,12,1,12,0.00
2013-2-24,37.0,27.5,19.0,22.6,13.9,7.8,84,59,35,23.74,23.59,17,2,17,0.00
2013-2-25,54.0,32.9,17.6,21.2,12.3,6.3,64,44,26,23.89,23.77,9,1,9,0.00
2013-2-26,50.0,34.2,24.6,18.0,10.4,2.8,56,38,27,23.86,23.74,15,2,15,0.00
2013-2-27,53.1,34.5,20.7,19.1,9.2,2.6,51,35,21,23.98,23.86,10,1,10,0.00
2013-2-28,57.4,38.2,25.2,19.3,11.5,3.6,50,34,20,24.13,23.98,10,1,10,0.00
2013-3-1,66.7,43.8,27.9,29.2,20.9,11.6,59,42,23,24.13,24.07,9,1,9,0.00
2013-3-2,73.4,48.8,33.1,32.3,25.8,19.0,72,44,22,24.13,23.98,8,1,8,0.00
2013-3-3,61.3,48.3,37.0,26.6,22.7,18.5,56,37,26,23.98,23.77,11,2,11,0.00
2013-3-4,62.2,47.0,32.9,32.5,26.8,20.1,78,47,30,23.92,23.71,13,2,13,0.00
2013-3-5,62.1,45.9,33.3,35.4,26.9,20.6,82,52,28,23.95,23.83,9,1,9,0.00
2013-3-6,64.0,47.4,35.1,36.9,26.4,22.1,76,47,26,23.86,23.77,10,1,10,0.00
2013-3-7,61.3,48.8,39.6,28.6,23.7,19.1,48,38,26,23.80,23.71,13,3,13,0.00
2013-3-8,46.0,34.5,27.0,37.4,30.2,23.7,98,86,43,23.71,23.54,13,2,13,0.12
2013-3-9,34.0,31.2,27.7,33.0,29.4,24.8,97,93,87,23.83,23.62,0,0,0,0.00
2013-3-10,49.5,35.5,24.8,36.7,27.3,22.2,95,74,47,23.98,23.83,10,0,10,0.24
2013-3-11,61.3,41.4,27.7,31.6,24.9,17.8,79,55,27,23.98,23.89,8,1,8,0.00
2013-3-12,69.3,47.8,32.0,37.2,28.1,25.1,78,51,23,24.01,23.92,8,0,8,0.00
2013-3-13,72.1,52.2,35.6,41.4,30.0,26.8,78,47,22,24.07,24.01,8,1,8,0.00
2013-3-14,79.0,56.8,40.3,38.8,29.8,24.0,57,39,20,24.07,24.01,9,1,9,0.00
2013-3-15,74.8,56.7,42.8,38.7,30.0,25.9,60,39,21,24.01,23.86,10,1,10,0.00
2013-3-16,71.8,55.7,42.6,35.3,28.5,23.6,58,37,22,23.86,23.71,11,1,11,0.00
2013-3-17,71.6,54.9,42.1,32.4,24.5,15.5,60,33,17,23.80,23.71,11,2,11,0.00
2013-3-19,70.9,57.7,42.1,34.0,28.3,26.0,54,34,23,23.95,23.86,9,1,9,0.00
2013-3-20,64.8,52.3,39.6,32.2,28.1,24.6,60,40,28,23.95,23.74,15,2,15,0.00
2013-3-21,71.2,55.0,39.7,35.5,27.2,18.4,58,36,20,23.74,23.65,13,2,13,0.00
2013-3-22,65.7,48.3,35.4,34.2,20.8,8.4,55,35,24,23.71,23.62,13,1,13,0.00
2013-3-23,61.0,42.2,31.1,18.6,10.4,4.0,34,27,19,23.83,23.68,11,1,11,0.00
2013-3-24,64.2,44.5,28.6,25.7,13.5,2.6,36,29,21,23.86,23.77,10,1,10,0.00
2013-3-25,68.2,49.2,32.9,29.5,19.1,8.1,47,31,22,23.89,23.80,10,1,10,0.00
2013-3-26,68.0,53.0,40.5,28.7,21.6,16.9,40,30,23,23.86,23.77,13,2,13,0.00
2013-3-27,67.1,52.2,39.9,28.6,22.3,17.0,44,32,23,23.86,23.77,11,1,11,0.00
2013-3-28,68.2,52.5,38.3,32.6,24.9,18.3,56,36,23,23.95,23.86,10,1,10,0.00
2013-3-29,73.9,54.3,38.7,36.1,26.4,20.0,60,36,21,23.98,23.92,11,1,11,0.00
2013-3-30,64.6,51.4,42.4,36.7,27.3,19.9,54,40,27,23.98,23.92,8,0,8,0.00
2013-3-31,72.3,54.1,39.7,37.2,28.3,23.5,62,40,22,23.95,23.83,12,1,12,0.00
2013-4-1,65.7,49.5,36.1,31.6,24.7,15.3,72,40,24,23.86,23.80,13,2,13,0.00
2013-4-2,67.1,48.7,32.9,30.1,23.6,16.0,57,39,24,23.86,23.77,13,1,13,0.00
2013-4-3,72.5,52.6,34.9,33.5,26.5,18.7,68,39,22,23.95,23.86,11,1,11,0.00
2013-4-4,74.5,55.3,40.1,33.4,25.8,21.3,50,34,21,23.98,23.89,13,1,13,0.00
2013-4-5,72.9,57.0,42.6,34.9,27.5,22.1,51,33,23,23.89,23.80,13,2,13,0.00
2013-4-6,73.4,54.3,39.9,34.2,27.5,23.1,55,37,23,23.86,23.80,10,1,10,0.00
2013-4-7,70.2,54.1,38.8,34.7,27.5,22.5,53,38,24,23.83,23.65,10,1,10,0.00
2013-4-8,55.0,45.6,35.2,37.5,30.6,24.8,88,57,38,23.65,23.36,22,4,22,0.00
2013-4-9,47.3,38.5,33.3,38.1,27.2,17.4,91,66,40,23.71,23.39,10,1,10,0.08
2013-4-10,59.4,42.6,28.4,30.0,20.8,14.4,73,44,26,23.83,23.71,10,1,10,0.00
2013-4-11,65.3,49.0,34.2,32.3,23.0,18.5,61,38,24,23.83,23.71,12,1,12,0.00
2013-4-12,72.3,52.9,36.9,37.5,23.9,17.7,55,34,19,23.77,23.71,9,1,9,0.00
2013-4-13,72.7,56.1,39.2,35.5,25.3,19.2,52,32,22,0.00,40.00,13,3,15,0.00
2013-4-14,70.3,57.5,48.7,32.4,27.4,23.2,48,32,24,23.68,23.59,15,4,15,0.00
2013-4-15,65.8,53.1,43.3,38.8,32.9,27.2,67,47,33,23.62,23.56,16,5,16,0.00
2013-4-16,47.7,45.2,41.7,38.0,32.9,27.8,78,63,47,23.62,23.56,19,6,19,0.00
2013-4-17,55.2,44.1,34.0,25.9,15.7,6.5,54,32,25,23.86,23.68,13,2,13,0.00
2013-4-18,61.3,42.0,27.9,21.6,11.2,4.8,40,29,19,23.98,23.86,14,1,14,0.00
2013-4-19,70.5,47.9,28.0,26.4,13.9,3.1,36,26,17,24.01,23.86,10,1,10,0.00
2013-4-20,74.8,53.5,36.3,31.1,18.2,8.7,38,26,18,23.92,23.80,13,2,13,0.00
2013-4-21,78.3,57.3,39.4,32.5,22.2,11.2,42,27,15,23.95,23.89,12,1,12,0.00
2013-4-22,79.3,60.6,43.0,34.7,24.7,15.1,39,26,20,23.89,23.77,15,2,15,0.00
2013-4-23,75.7,57.5,42.1,31.4,21.3,5.7,39,25,17,23.86,23.71,12,1,12,0.00
2013-4-24,73.4,57.9,41.7,31.1,22.2,11.0,31,25,21,23.86,23.77,11,2,11,0.00
2013-4-25,66.7,54.0,42.3,31.4,24.6,15.7,49,32,23,23.92,23.77,11,1,11,0.00
2013-4-26,72.0,54.3,38.7,36.6,26.8,22.0,60,37,22,24.04,23.98,8,1,8,0.00
2013-4-27,81.3,59.7,42.1,32.2,22.3,11.6,38,25,14,24.01,23.92,11,1,11,0.00
2013-4-28,85.3,63.6,43.7,33.9,23.0,12.2,32,22,14,23.92,23.80,11,1,11,0.00
2013-4-29,87.1,65.9,49.1,35.5,25.7,17.4,35,23,16,23.83,23.71,11,1,11,0.00
2013-4-30,82.0,66.0,50.9,33.5,25.5,18.8,29,22,16,23.77,23.71,17,2,17,0.00
2013-5-1,81.9,63.1,47.1,36.6,24.0,10.6,37,23,18,24.01,23.77,10,1,10,0.00
2013-5-2,73.8,55.1,36.5,27.3,15.3,3.2,28,21,16,24.07,24.01,12,2,12,0.00
2013-5-3,81.1,60.2,42.1,31.0,18.0,7.0,26,20,14,24.01,23.80,11,1,11,0.00
2013-5-4,79.5,60.4,42.6,31.5,20.6,10.2,33,22,15,23.80,23.68,18,1,18,0.00
2013-5-5,70.3,58.7,50.2,30.7,24.0,16.9,35,26,22,23.80,23.74,13,2,13,0.00
2013-5-6,65.1,54.6,45.9,38.7,32.1,18.9,56,43,26,23.86,23.77,13,2,13,0.00
2013-5-7,64.9,51.0,38.7,41.0,36.4,30.1,90,60,34,23.83,23.77,13,2,13,0.04
2013-5-8,66.0,47.5,33.8,41.2,30.7,26.2,86,56,30,23.89,23.83,9,1,9,0.00
2013-5-9,64.0,49.6,38.5,43.9,32.6,26.5,72,54,33,23.92,23.89,6,0,10,0.00
2013-5-10,74.7,55.5,38.1,46.6,31.2,27.5,77,45,21,24.01,23.89,10,1,10,0.00
2013-5-11,78.3,60.6,44.6,37.5,31.1,23.5,58,35,21,24.07,23.98,12,1,12,0.00
2013-5-12,82.8,64.5,48.0,38.3,30.6,24.5,48,29,19,24.10,23.95,10,1,10,0.00
2013-5-13,86.0,66.3,50.7,39.4,30.5,23.6,41,27,19,24.04,23.92,8,1,8,0.00
2013-5-14,86.0,69.8,54.9,38.8,31.8,25.9,34,25,19,23.95,23.86,11,1,12,0.00
2013-5-15,82.8,68.1,50.9,36.3,26.8,15.2,26,21,17,23.92,23.83,14,2,14,0.00
2013-5-16,82.4,66.6,50.0,36.1,27.7,16.6,35,24,17,23.86,23.77,15,2,15,0.00
2013-5-17,72.5,62.9,52.7,32.5,29.0,24.5,42,28,22,23.86,23.77,13,2,13,0.00
2013-5-18,75.2,60.0,43.7,37.2,30.6,25.1,60,35,22,23.86,23.80,13,2,13,0.00
2013-5-19,79.3,62.5,47.1,37.7,29.3,20.5,49,30,20,23.86,23.77,13,2,13,0.00
2013-5-20,78.3,60.0,42.4,33.6,26.0,19.5,47,29,18,23.89,23.83,13,1,13,0.00
2013-5-21,82.8,63.8,45.0,37.9,28.4,20.4,49,28,17,23.89,23.77,11,1,11,0.00
2013-5-22,82.0,67.6,52.3,36.0,28.9,19.9,36,24,19,23.77,23.71,24,3,24,0.00
2013-5-23,80.6,67.0,57.6,35.6,28.4,21.2,35,24,19,23.80,23.71,14,3,14,0.00
2013-5-24,81.5,63.1,45.7,32.6,24.4,14.2,34,23,17,23.89,23.80,14,2,14,0.00
2013-5-25,81.1,64.8,45.5,32.3,24.7,14.2,34,22,17,23.89,23.83,15,2,15,0.00
2013-5-26,80.8,63.5,45.7,36.4,24.6,14.2,29,23,17,23.92,23.83,10,2,10,0.00
2013-5-27,79.7,61.8,47.7,35.1,26.3,18.9,37,26,20,23.80,23.77,8,1,9,0.00
2013-5-28,77.7,63.0,48.7,36.4,30.8,20.5,43,31,21,23.77,23.65,13,2,13,0.00
2013-5-29,82.4,64.9,47.5,39.0,33.2,26.1,60,34,19,23.74,23.65,16,2,16,0.00
2013-5-30,83.7,65.3,52.3,46.4,38.7,29.6,62,40,23,23.83,23.74,11,1,11,0.00
2013-6-5,92.5,77.1,63.9,37.2,31.5,26.3,24,19,14,23.89,23.83,10,2,10,0.00
2013-6-6,95.5,75.6,57.0,41.4,31.4,23.4,30,20,14,23.89,23.80,12,1,12,0.00
2013-6-7,100.4,77.7,59.2,42.2,31.8,23.4,32,19,13,23.86,23.77,10,1,10,0.00
2013-6-8,96.3,78.9,60.1,42.0,33.4,25.3,29,20,14,23.89,23.83,15,2,15,0.00
2013-6-9,97.7,78.2,60.4,42.8,32.6,23.7,28,20,13,23.95,23.86,13,1,13,0.00
2013-6-10,94.3,75.8,56.7,37.8,29.4,22.9,30,19,13,23.92,23.86,12,2,12,0.00
2013-6-11,94.5,77.0,62.2,41.8,33.4,26.4,30,21,14,23.95,23.86,11,2,11,0.00
2013-6-12,97.3,77.4,58.8,41.8,32.0,23.2,29,20,13,23.98,23.92,11,1,11,0.00
2013-6-13,91.9,75.8,59.7,44.6,36.5,27.4,36,25,18,23.95,23.86,12,1,12,0.00
2013-6-14,93.0,74.4,57.0,41.8,34.9,26.9,37,25,17,23.92,23.83,13,2,13,0.00
2013-6-15,88.7,73.8,60.1,42.0,34.8,26.8,37,25,18,23.92,23.86,11,2,11,0.00
2013-6-16,91.9,73.8,56.5,41.4,33.5,24.8,36,24,17,23.98,23.92,11,2,11,0.00
2013-6-17,91.9,72.8,56.1,39.0,29.5,20.1,34,21,14,23.95,23.89,13,2,13,0.00
2013-6-18,92.3,72.9,54.0,38.5,27.9,19.9,28,19,14,23.89,23.80,11,2,11,0.00
2013-6-19,88.5,72.8,53.6,37.6,29.1,20.6,28,20,15,23.83,23.77,14,2,14,0.00
2013-6-20,88.2,71.2,52.5,37.8,28.7,19.4,28,21,15,23.86,23.77,13,2,13,0.00
2013-6-21,89.6,72.4,54.1,40.4,30.6,22.6,32,22,15,23.89,23.83,13,2,13,0.00
2013-6-22,88.7,71.8,55.0,40.2,30.2,22.0,29,22,16,23.89,23.80,13,2,13,0.00
2013-6-23,88.7,71.6,54.7,39.1,30.3,22.0,35,22,15,23.83,23.74,12,2,12,0.00
2013-6-24,83.5,71.1,59.9,37.2,32.1,25.6,37,24,19,23.86,23.77,13,2,13,0.00
2013-6-25,89.2,71.8,55.6,40.2,32.3,23.2,37,24,18,23.95,23.86,12,2,12,0.00
2013-6-26,94.1,75.3,56.1,41.3,32.6,23.7,35,22,14,24.04,23.95,10,1,10,0.00
2013-6-27,99.7,77.8,58.3,45.8,37.5,27.3,47,25,16,24.07,24.01,10,1,10,0.00
2013-6-28,102.0,80.3,64.6,46.3,37.7,28.1,34,23,15,24.04,23.95,10,1,10,0.00
2013-6-29,102.4,83.4,67.8,46.7,40.2,34.5,35,23,14,23.98,23.89,10,1,10,0.00
2013-6-30,99.3,78.4,67.8,59.9,44.2,37.0,69,32,16,23.95,23.86,13,1,13,0.00
2013-7-1,99.0,77.1,64.6,66.5,52.2,41.9,88,46,17,23.98,23.92,15,1,15,0.20
2013-7-2,78.3,71.1,64.2,54.4,47.3,41.7,68,45,29,23.98,23.92,6,0,9,0.00
2013-7-3,82.4,70.9,68.0,61.3,48.5,43.2,60,46,37,23.98,23.89,5,0,5,0.00
2013-7-15,86.0,66.4,59.4,62.9,58.4,50.4,98,81,32,23.92,23.89,10,1,10,0.20
2013-7-16,79.2,66.5,59.2,64.9,59.6,55.6,98,80,52,24.04,23.89,8,0,8,0.71
2013-7-17,74.5,60.4,57.9,63.2,59.1,57.4,98,96,68,24.07,24.01,4,0,4,0.00
2013-8-1,83.3,75.2,68.7,55.0,52.2,49.1,60,46,33,23.95,23.92,10,1,10,0.00
2013-8-2,88.9,74.9,65.1,58.1,49.7,42.9,72,45,21,23.98,23.92,10,2,10,0.00
2013-8-3,88.9,74.7,61.9,55.5,49.1,43.3,71,44,23,24.01,23.95,11,2,11,0.00
2013-8-4,88.0,73.6,62.4,55.4,45.3,36.9,66,39,21,24.04,23.95,10,1,10,0.00
2013-8-5,86.9,72.5,59.0,54.6,40.5,33.9,56,33,20,24.01,23.92,9,1,9,0.00
2013-8-6,70.9,66.1,60.8,56.3,52.8,47.1,79,63,46,24.01,23.95,6,0,6,0.00
2013-8-7,86.4,69.4,55.8,60.8,48.7,39.0,92,53,26,24.01,23.92,10,1,10,0.00
2013-8-8,89.1,70.2,53.8,44.9,35.0,28.9,51,29,18,23.98,23.89,13,1,13,0.00
2013-8-9,89.1,71.0,55.2,45.2,35.0,28.8,47,28,18,23.95,23.89,11,2,14,0.00
2013-8-10,89.6,71.2,58.5,40.2,34.3,29.7,40,27,18,24.01,23.95,12,1,12,0.00
2013-8-11,88.9,70.8,56.8,44.1,35.9,28.8,40,29,20,24.01,23.92,11,1,11,0.00
2013-8-12,91.6,73.2,59.9,48.5,40.8,31.7,55,33,18,23.98,23.92,10,1,10,0.00
2013-8-13,91.8,72.5,58.6,43.4,35.8,26.3,46,27,18,24.01,23.95,9,1,9,0.00
2013-8-14,90.0,72.9,59.9,64.0,40.8,26.6,79,33,19,24.01,23.92,9,1,9,0.00
2013-8-15,86.9,71.4,58.6,63.5,53.1,42.7,98,58,28,24.04,23.98,8,0,8,0.12
2013-8-16,82.9,67.0,58.8,70.6,56.1,46.6,98,71,30,24.04,23.98,10,0,10,0.63
2013-8-17,82.9,66.4,58.8,65.8,57.4,49.8,98,76,33,24.04,23.95,10,0,10,0.28
2013-8-18,80.4,68.9,59.2,65.1,54.6,44.8,97,62,33,24.04,23.95,10,1,10,0.12
2013-8-19,86.4,70.1,60.6,59.8,54.0,48.3,83,60,28,24.04,23.95,15,1,15,0.00
2013-8-20,91.8,72.8,57.9,62.4,50.9,44.1,87,52,21,23.98,23.89,10,1,10,0.00
2013-8-21,77.0,67.1,60.6,63.3,56.3,47.0,95,70,36,24.04,23.95,6,0,6,0.00
2013-8-22,82.9,69.0,60.1,62.0,55.8,48.6,98,67,32,24.01,23.89,8,0,8,0.35
2013-8-23,76.5,65.9,56.8,61.0,54.3,44.8,97,70,34,23.98,23.86,6,0,6,0.00
2013-8-24,73.9,63.2,57.9,65.3,55.4,49.5,98,77,45,24.01,23.92,9,0,9,0.20
2013-8-25,64.2,60.8,58.1,63.7,59.5,56.5,98,96,85,24.04,23.95,4,0,4,0.71
2013-8-26,77.0,64.8,57.7,72.8,61.1,57.2,98,89,55,24.01,23.92,12,0,12,0.24
2013-8-27,62.2,61.7,61.0,59.1,58.6,57.8,92,90,86,23.95,23.92,0,0,0,0.24
2013-8-28,86.4,71.5,62.2,60.6,54.9,48.9,84,58,30,24.01,23.92,9,1,9,0.00
2013-8-29,80.4,66.7,60.4,69.2,61.3,56.3,98,84,59,24.07,24.01,8,0,8,1.10
2013-8-30,63.0,62.9,62.6,62.4,62.3,62.0,98,98,98,24.07,24.04,0,0,0,0.00
2013-9-3,84.6,72.4,62.4,65.2,57.4,48.8,97,64,30,24.01,23.95,9,1,9,0.12
2013-9-4,87.8,71.1,60.6,68.1,56.4,50.2,91,65,29,24.04,23.95,9,1,9,0.00
2013-9-5,87.6,72.0,61.0,58.4,50.1,41.7,82,51,23,24.04,23.98,8,1,8,0.00
2013-9-6,86.5,72.1,65.1,67.4,53.2,47.0,92,54,29,24.01,23.92,10,1,10,0.04
2013-9-7,76.3,66.5,58.5,61.4,55.9,52.0,87,70,45,23.95,23.92,6,0,8,0.00
2013-9-8,64.8,61.0,55.8,64.2,59.0,55.0,98,94,76,23.92,23.83,5,0,5,0.67
2013-9-9,62.6,57.5,53.6,60.2,56.7,52.3,98,97,89,23.86,23.77,5,0,5,0.31
2013-9-10,62.8,57.7,52.9,60.3,56.4,52.2,98,96,84,23.89,23.80,6,0,6,0.08
2013-9-11,67.3,58.5,52.0,62.8,55.6,50.6,98,90,67,23.98,23.89,6,0,6,0.12
2013-9-12,78.8,61.7,49.5,60.7,49.4,41.8,98,70,31,23.95,23.86,8,1,8,0.00
2013-9-13,79.2,63.7,52.0,59.0,50.4,46.2,92,66,33,23.89,23.77,8,0,8,0.00
2013-9-14,76.1,61.1,53.6,63.1,53.5,49.2,98,79,43,23.83,23.77,8,0,8,0.47
2013-9-15,82.0,64.8,52.0,64.6,52.1,44.8,98,69,30,23.92,23.83,8,0,8,0.00
2013-9-16,86.0,67.9,56.7,62.0,50.5,45.4,84,57,28,23.95,23.86,8,0,8,0.00
2013-9-17,82.4,69.7,59.0,62.6,52.9,46.7,80,57,31,23.80,23.80,7,2,8,0.00
2013-9-18,82.6,68.5,55.0,48.3,38.1,31.5,60,35,21,23.83,23.77,15,2,15,0.00
2013-9-19,83.8,64.3,51.8,49.3,35.6,28.9,61,37,19,23.86,23.80,9,1,9,0.00
2013-9-20,82.8,65.5,49.6,49.6,40.7,28.1,66,42,25,23.92,23.83,10,1,10,0.00
2013-9-21,80.1,67.3,56.3,57.2,46.6,42.0,72,49,32,23.89,23.74,14,2,14,0.00
2013-9-22,71.4,60.6,47.7,47.2,33.5,24.9,57,37,22,23.80,23.65,15,3,15,0.00
2013-9-23,80.1,58.6,43.5,43.8,33.5,29.5,72,42,20,23.92,23.80,8,1,8,0.00
2013-9-24,80.4,62.3,50.0,44.2,33.8,29.5,63,37,20,23.95,23.83,9,2,9,0.00
2013-9-25,73.9,61.9,55.6,41.6,35.1,30.8,46,37,25,23.83,23.71,11,2,11,0.00
2013-9-27,68.7,55.2,40.8,34.7,24.6,20.1,51,32,22,23.92,23.77,9,1,9,0.00
2013-9-28,75.9,54.6,37.6,35.0,26.0,20.2,52,35,21,24.01,23.92,9,1,9,0.00
2013-9-29,77.5,57.9,43.7,45.6,31.4,21.7,64,38,22,24.04,23.95,9,1,9,0.00
2013-9-30,80.4,58.1,42.8,38.9,29.0,20.3,50,35,20,23.95,23.86,8,1,8,0.00
2013-10-1,78.6,58.6,43.5,42.2,30.7,27.1,59,37,21,23.95,23.86,10,1,10,0.00
2013-10-2,74.8,59.5,46.4,47.1,33.6,28.1,69,40,23,23.92,23.83,10,2,10,0.00
2013-10-3,72.7,59.1,46.8,47.6,34.5,27.9,64,41,24,23.83,23.71,14,2,14,0.00
2013-10-4,69.3,50.8,37.9,28.8,21.3,15.1,50,33,20,23.98,23.77,10,1,10,0.00
2013-10-5,67.3,50.4,37.0,28.2,21.4,14.5,41,32,23,24.07,23.98,12,1,12,0.00
2013-10-6,78.6,57.5,42.8,32.0,22.1,14.3,38,26,18,24.07,24.01,10,1,10,0.00
2013-10-7,79.9,57.9,41.7,36.6,24.9,16.0,47,29,20,24.01,23.86,8,1,8,0.00
2013-10-8,72.5,60.9,48.7,32.3,27.4,20.9,37,28,22,23.86,23.68,14,3,14,0.00
2013-10-9,63.9,54.4,47.1,41.8,33.5,25.2,69,46,34,23.68,23.59,17,4,17,0.00
2013-10-10,47.1,38.3,33.8,38.1,34.4,31.7,95,86,60,23.83,23.59,14,1,14,0.47
2013-10-11,65.7,45.1,32.0,41.9,33.9,28.7,98,70,33,23.86,23.83,8,0,8,0.00
2013-10-12,68.9,49.1,35.6,38.3,33.2,30.1,88,59,29,23.83,23.83,6,1,8,0.00
2013-10-13,64.8,52.5,44.1,35.3,30.9,25.9,64,45,32,23.89,23.80,17,2,17,0.00
2013-10-14,67.6,47.9,34.5,35.3,27.3,20.9,75,49,23,23.92,23.86,9,0,9,0.00
2013-10-15,66.9,47.6,34.9,34.5,26.1,21.7,72,47,23,23.86,23.80,8,1,8,0.00
2013-10-16,67.3,47.1,32.7,35.3,26.2,19.8,76,47,25,23.95,23.86,8,1,8,0.00
2013-10-17,70.9,48.7,34.3,33.3,24.7,20.0,61,42,22,23.95,23.83,8,1,8,0.00
2013-10-18,70.2,50.0,35.8,29.8,23.3,17.5,59,37,20,23.95,23.86,8,1,8,0.00
2013-10-19,72.3,51.7,36.0,30.6,22.2,15.3,47,33,17,23.98,23.89,8,1,8,0.00
2013-10-20,74.1,51.9,37.9,31.6,22.1,16.3,44,32,18,23.92,23.80,9,1,9,0.00
2013-10-21,73.8,52.5,39.4,32.0,23.2,17.4,46,33,21,23.95,23.86,8,1,8,0.00
2013-10-22,74.7,54.4,40.3,32.2,24.3,17.5,49,32,21,23.98,23.92,8,1,8,0.00
2013-10-23,75.4,56.8,41.5,32.8,25.1,19.5,43,30,21,23.89,23.86,10,1,10,0.00
2013-10-24,75.0,57.3,43.5,33.7,26.2,18.8,38,31,21,23.95,23.86,10,1,10,0.00
2013-10-25,73.8,53.6,40.5,32.6,25.1,19.1,49,34,21,24.01,23.92,11,1,11,0.00
2013-10-26,72.5,55.2,42.3,35.2,30.2,25.6,62,40,23,24.07,23.98,9,1,9,0.00
2013-10-27,73.4,56.3,43.2,35.9,28.6,24.8,56,36,22,23.98,23.68,13,2,13,0.00
2013-10-28,61.7,52.9,47.8,37.7,28.4,23.2,65,39,32,23.71,23.65,20,5,20,0.00
2013-10-29,48.9,43.1,34.9,36.6,31.4,27.7,79,64,45,23.77,23.68,13,2,13,0.00
2013-10-30,58.1,40.8,30.6,36.7,26.8,21.1,91,61,32,23.86,23.74,11,0,11,0.00
2013-10-31,64.4,43.0,29.5,29.3,22.7,18.0,73,48,25,23.95,23.86,8,0,8,0.00
2013-11-1,70.3,48.3,31.5,30.5,22.8,16.4,63,39,23,24.01,23.95,8,0,8,0.00
2013-11-2,72.7,52.7,39.4,30.6,21.1,14.6,40,30,19,23.98,23.80,9,1,9,0.00
2013-11-3,66.4,50.5,36.5,31.0,22.8,17.1,50,34,26,23.80,23.68,11,2,11,0.00
2013-11-4,61.2,45.6,33.6,31.7,23.0,15.4,52,41,30,23.71,23.65,13,1,13,0.00
2013-11-5,60.6,42.0,29.7,31.6,21.6,9.9,76,46,27,23.98,23.71,8,1,8,0.00
2013-11-6,66.6,43.2,26.8,21.3,13.8,7.3,52,33,17,24.10,23.98,7,0,7,0.00
2013-11-7,71.4,49.5,36.1,27.0,15.7,8.6,33,26,17,24.10,23.98,7,0,7,0.00
2013-11-8,71.2,49.6,38.1,31.3,21.9,9.6,50,34,22,23.98,23.89,6,1,6,0.00
2013-11-9,72.7,49.7,37.9,33.8,26.0,20.7,58,42,23,24.01,23.92,7,0,7,0.00
2013-11-10,67.8,50.6,38.1,39.2,31.6,24.7,69,50,33,24.04,23.98,9,0,9,0.00
2013-11-11,74.5,52.5,38.1,34.5,27.6,18.4,66,42,23,24.07,23.98,6,0,6,0.00
2013-11-12,70.0,57.2,47.5,30.4,23.6,16.6,36,27,22,24.07,24.07,9,1,9,0.00
2013-11-13,75.0,54.3,41.5,37.3,30.3,24.4,59,41,24,24.07,23.92,8,0,9,0.00
2013-11-14,72.0,50.2,39.2,34.1,27.5,23.0,65,44,22,23.92,23.74,8,0,8,0.00
2013-11-15,61.9,50.2,39.6,42.9,36.1,26.6,98,61,42,23.74,23.54,14,3,14,0.35
2013-11-16,50.4,44.5,40.5,43.5,39.1,35.5,98,82,59,23.74,23.59,13,2,13,0.00
2013-11-17,61.3,42.3,31.8,41.2,32.1,17.6,94,69,38,23.95,23.74,8,1,8,0.00
2013-11-18,64.0,48.0,33.6,41.6,34.6,17.6,84,62,39,23.98,23.89,8,1,8,0.00
2013-11-19,42.3,39.2,37.4,35.9,34.9,33.8,90,85,76,23.89,23.86,3,0,3,0.00
2013-11-20,49.6,49.6,49.6,39.5,39.5,39.5,68,68,68,23.71,23.71,5,1,5,0.08
2013-11-22,40.6,37.6,35.1,40.1,37.1,34.5,98,98,98,23.77,23.71,10,0,10,1.43
2013-11-23,43.0,37.7,35.1,41.2,35.1,32.4,98,91,75,23.83,23.74,13,1,13,0.31
2013-11-24,38.8,34.9,31.1,37.8,33.9,30.6,98,96,89,23.92,23.83,4,0,4,0.20
2013-11-25,54.3,37.9,30.0,43.2,32.7,29.5,98,85,46,23.95,23.89,6,0,6,0.00
2013-11-26,56.7,45.0,37.4,29.9,25.8,22.0,72,48,35,24.07,23.98,10,2,10,0.00
2013-11-27,54.0,41.0,33.6,29.0,24.0,20.3,71,52,36,23.98,23.83,10,1,10,0.00
2013-11-28,60.4,40.9,31.1,30.6,24.5,19.9,73,54,30,23.95,23.83,8,1,8,0.00
2013-11-29,59.2,41.9,33.1,33.7,29.3,22.8,86,64,36,24.01,23.92,8,1,8,0.00
2013-11-30,63.0,42.1,30.2,36.0,30.3,20.8,90,66,34,24.01,23.95,6,0,6,0.00
2013-12-1,57.4,41.8,33.3,40.2,28.6,21.7,92,64,29,24.04,23.98,8,0,8,0.00
2013-12-2,66.0,45.5,34.5,32.1,23.9,16.4,63,44,26,23.80,23.77,8,1,8,0.00
2013-12-3,57.6,45.1,38.3,34.2,24.4,16.0,71,45,29,23.56,23.54,14,3,14,0.00
2013-12-4,42.8,35.1,23.0,37.4,30.2,19.2,98,83,56,23.65,23.48,17,2,17,0.28
2013-12-5,38.5,25.2,16.7,19.5,13.4,7.2,87,63,38,23.74,23.62,8,0,8,0.00
2013-12-6,41.0,23.9,13.3,13.6,8.6,1.4,71,54,31,23.83,23.74,9,1,9,0.00
2013-12-7,33.3,24.7,17.4,21.6,15.9,8.9,74,69,59,23.77,23.62,11,2,11,0.00
2013-12-8,33.1,24.3,16.5,22.1,16.1,10.0,77,71,62,23.77,23.71,10,0,10,0.00
2013-12-9,36.7,22.3,11.8,10.8,5.1,-1.5,77,49,32,24.01,23.77,13,1,13,0.00
2013-12-10,48.2,26.7,14.2,18.5,7.6,-2.3,61,45,29,24.01,23.89,6,0,6,0.00
2013-12-11,52.2,34.1,22.8,23.0,15.2,5.7,58,47,29,24.04,23.92,6,1,6,0.04
2013-12-12,54.1,39.0,30.4,31.6,26.4,16.9,87,63,39,24.04,23.89,6,0,6,0.00
2013-12-13,54.0,37.6,30.7,35.8,27.4,17.4,94,70,38,23.95,23.86,8,1,8,0.00
2013-12-14,51.8,35.0,24.8,24.3,18.4,12.7,75,53,30,24.10,23.95,9,1,9,0.00
2013-12-15,61.0,41.0,28.4,26.8,19.1,12.4,57,42,26,24.10,24.04,8,0,8,0.00
2013-12-16,68.4,45.7,33.4,29.7,22.2,16.8,58,41,23,24.10,24.04,8,0,8,0.00
2013-12-17,68.4,45.9,34.0,33.0,23.8,16.9,54,43,26,24.10,24.01,5,0,5,0.00
2013-12-18,68.4,48.4,38.8,31.4,22.9,17.8,45,37,23,24.01,23.68,11,1,11,0.00
2013-12-19,49.5,41.3,34.0,34.7,26.7,20.2,96,60,37,23.68,23.54,15,3,15,0.04
2013-12-20,38.3,34.9,32.0,37.5,34.0,31.0,98,96,95,23.59,23.51,6,0,6,0.28
2013-12-21,46.4,33.9,28.6,31.8,27.1,22.2,97,78,48,23.80,23.56,11,0,11,0.04
2013-12-22,29.8,28.0,25.3,25.7,23.4,21.2,85,82,80,23.89,23.80,0,0,0,0.00
2013-12-23,54.3,42.1,31.5,26.2,22.1,17.2,67,46,32,24.13,24.07,8,1,8,0.00
2013-12-24,61.7,40.8,29.1,28.3,23.0,18.1,68,51,26,24.07,23.95,8,1,8,0.00
2013-12-25,55.6,39.0,29.1,23.9,18.0,10.9,70,45,25,24.07,24.01,11,1,11,0.00
2013-12-26,59.5,42.1,30.0,22.0,15.1,9.0,44,34,22,24.07,23.98,11,1,11,0.00
2013-12-27,61.5,43.7,33.6,26.3,18.7,11.3,53,37,25,24.07,23.98,9,1,9,0.00
2013-12-28,52.9,38.9,31.1,27.4,20.6,16.2,63,49,30,23.98,23.80,7,0,7,0.00
2013-12-29,51.4,36.6,27.0,23.6,18.1,10.7,71,49,31,23.95,23.80,10,1,10,0.00
2013-12-30,62.6,38.7,25.9,24.6,14.0,6.9,51,37,21,24.04,24.04,5,0,6,0.00
2013-12-31,64.2,41.8,31.6,27.4,19.5,15.6,55,43,24,24.04,23.92,8,0,8,0.00
2014-1-1,62.2,43.3,32.2,27.7,20.8,16.1,55,42,26,23.98,23.92,9,1,9,0.00
2014-1-2,64.8,43.1,31.6,26.7,16.9,10.1,44,35,22,24.01,23.92,6,0,6,0.00